sensor_id;sensor_type;location;lat;lon;timestamp;P1;durP1;ratioP1;P2;durP2;ratioP2
49842;SDS011;55559;48.898;9.184;2023-04-16T00:02:20;25.73;;;20.25;;
49842;SDS011;55559;48.898;9.184;2023-04-16T00:04:48;25.13;;;20.15;;
49842;SDS011;55559;48.898;9.184;2023-04-16T00:07:16;26.15;;;20.45;;
49842;SDS011;55559;48.898;9.184;2023-04-16T00:09:43;27.13;;;19.25;;
49842;SDS011;55559;48.898;9.184;2023-04-16T00:12:10;31.25;;;23.00;;
49842;SDS011;55559;48.898;9.184;2023-04-16T00:14:38;25.88;;;18.77;;
49842;SDS011;55559;48.898;9.184;2023-04-16T00:17:08;26.20;;;19.08;;
49842;SDS011;55559;48.898;9.184;2023-04-16T00:19:36;23.75;;;19.27;;
49842;SDS011;55559;48.898;9.184;2023-04-16T00:22:04;24.60;;;18.73;;
49842;SDS011;55559;48.898;9.184;2023-04-16T00:24:31;22.65;;;17.60;;
49842;SDS011;55559;48.898;9.184;2023-04-16T00:26:59;22.58;;;18.83;;
49842;SDS011;55559;48.898;9.184;2023-04-16T00:29:26;23.70;;;18.25;;
49842;SDS011;55559;48.898;9.184;2023-04-16T00:31:55;21.63;;;16.67;;
49842;SDS011;55559;48.898;9.184;2023-04-16T00:34:24;24.17;;;18.55;;
49842;SDS011;55559;48.898;9.184;2023-04-16T00:36:51;28.92;;;19.58;;
49842;SDS011;55559;48.898;9.184;2023-04-16T00:39:19;22.98;;;17.17;;
49842;SDS011;55559;48.898;9.184;2023-04-16T00:41:46;26.02;;;17.70;;
49842;SDS011;55559;48.898;9.184;2023-04-16T00:44:14;20.95;;;17.60;;
49842;SDS011;55559;48.898;9.184;2023-04-16T00:46:41;19.52;;;16.60;;
49842;SDS011;55559;48.898;9.184;2023-04-16T00:49:09;24.38;;;16.98;;
49842;SDS011;55559;48.898;9.184;2023-04-16T00:51:39;20.85;;;15.93;;
49842;SDS011;55559;48.898;9.184;2023-04-16T00:54:07;17.45;;;13.55;;
49842;SDS011;55559;48.898;9.184;2023-04-16T00:56:34;18.33;;;14.30;;
49842;SDS011;55559;48.898;9.184;2023-04-16T00:59:02;17.75;;;14.63;;
49842;SDS011;55559;48.898;9.184;2023-04-16T01:01:30;18.15;;;13.00;;
49842;SDS011;55559;48.898;9.184;2023-04-16T01:03:57;19.10;;;13.57;;
49842;SDS011;55559;48.898;9.184;2023-04-16T01:06:26;18.85;;;15.52;;
49842;SDS011;55559;48.898;9.184;2023-04-16T01:08:55;21.50;;;14.98;;
49842;SDS011;55559;48.898;9.184;2023-04-16T01:11:22;19.27;;;15.15;;
49842;SDS011;55559;48.898;9.184;2023-04-16T01:13:50;17.95;;;13.40;;
49842;SDS011;55559;48.898;9.184;2023-04-16T01:16:17;21.38;;;14.38;;
49842;SDS011;55559;48.898;9.184;2023-04-16T01:18:45;16.52;;;14.50;;
49842;SDS011;55559;48.898;9.184;2023-04-16T01:21:14;16.83;;;13.63;;
49842;SDS011;55559;48.898;9.184;2023-04-16T01:23:41;18.17;;;14.63;;
49842;SDS011;55559;48.898;9.184;2023-04-16T01:26:09;18.25;;;14.43;;
49842;SDS011;55559;48.898;9.184;2023-04-16T01:28:36;19.92;;;14.60;;
49842;SDS011;55559;48.898;9.184;2023-04-16T01:31:04;17.15;;;13.77;;
49842;SDS011;55559;48.898;9.184;2023-04-16T01:33:54;16.73;;;12.50;;
49842;SDS011;55559;48.898;9.184;2023-04-16T01:36:23;19.00;;;12.85;;
49842;SDS011;55559;48.898;9.184;2023-04-16T01:38:51;20.98;;;14.95;;
49842;SDS011;55559;48.898;9.184;2023-04-16T01:41:19;18.15;;;13.88;;
49842;SDS011;55559;48.898;9.184;2023-04-16T01:43:46;19.55;;;13.88;;
49842;SDS011;55559;48.898;9.184;2023-04-16T01:46:14;18.23;;;14.38;;
49842;SDS011;55559;48.898;9.184;2023-04-16T01:48:44;21.42;;;15.65;;
49842;SDS011;55559;48.898;9.184;2023-04-16T01:51:12;20.45;;;14.05;;
49842;SDS011;55559;48.898;9.184;2023-04-16T01:53:41;16.38;;;13.85;;
49842;SDS011;55559;48.898;9.184;2023-04-16T01:56:08;16.95;;;13.50;;
49842;SDS011;55559;48.898;9.184;2023-04-16T01:58:36;17.92;;;13.90;;
49842;SDS011;55559;48.898;9.184;2023-04-16T02:01:04;17.08;;;14.50;;
49842;SDS011;55559;48.898;9.184;2023-04-16T02:03:31;19.17;;;14.00;;
49842;SDS011;55559;48.898;9.184;2023-04-16T02:05:59;19.90;;;14.90;;
49842;SDS011;55559;48.898;9.184;2023-04-16T02:08:27;22.52;;;15.65;;
49842;SDS011;55559;48.898;9.184;2023-04-16T02:10:56;17.48;;;15.00;;
49842;SDS011;55559;48.898;9.184;2023-04-16T02:13:25;16.95;;;12.98;;
49842;SDS011;55559;48.898;9.184;2023-04-16T02:15:52;22.00;;;14.98;;
49842;SDS011;55559;48.898;9.184;2023-04-16T02:18:43;17.85;;;14.18;;
49842;SDS011;55559;48.898;9.184;2023-04-16T02:21:12;17.77;;;14.75;;
49842;SDS011;55559;48.898;9.184;2023-04-16T02:23:41;15.52;;;13.40;;
49842;SDS011;55559;48.898;9.184;2023-04-16T02:26:13;17.88;;;14.38;;
49842;SDS011;55559;48.898;9.184;2023-04-16T02:28:42;17.80;;;14.73;;
49842;SDS011;55559;48.898;9.184;2023-04-16T02:31:11;20.15;;;14.20;;
49842;SDS011;55559;48.898;9.184;2023-04-16T02:33:43;19.95;;;14.55;;
49842;SDS011;55559;48.898;9.184;2023-04-16T02:36:10;21.50;;;15.57;;
49842;SDS011;55559;48.898;9.184;2023-04-16T02:38:38;22.48;;;15.45;;
49842;SDS011;55559;48.898;9.184;2023-04-16T02:41:05;20.55;;;14.90;;
49842;SDS011;55559;48.898;9.184;2023-04-16T02:43:34;20.33;;;15.35;;
49842;SDS011;55559;48.898;9.184;2023-04-16T02:46:03;21.17;;;15.70;;
49842;SDS011;55559;48.898;9.184;2023-04-16T02:48:30;22.33;;;15.20;;
49842;SDS011;55559;48.898;9.184;2023-04-16T02:50:58;19.27;;;15.10;;
49842;SDS011;55559;48.898;9.184;2023-04-16T02:53:25;22.55;;;14.85;;
49842;SDS011;55559;48.898;9.184;2023-04-16T02:55:53;19.10;;;15.10;;
49842;SDS011;55559;48.898;9.184;2023-04-16T02:58:21;24.75;;;16.50;;
49842;SDS011;55559;48.898;9.184;2023-04-16T03:00:51;21.00;;;15.82;;
49842;SDS011;55559;48.898;9.184;2023-04-16T03:03:20;25.13;;;17.08;;
49842;SDS011;55559;48.898;9.184;2023-04-16T03:05:48;22.80;;;17.83;;
49842;SDS011;55559;48.898;9.184;2023-04-16T03:08:15;24.02;;;16.83;;
49842;SDS011;55559;48.898;9.184;2023-04-16T03:10:43;23.75;;;16.73;;
49842;SDS011;55559;48.898;9.184;2023-04-16T03:13:10;20.80;;;15.38;;
49842;SDS011;55559;48.898;9.184;2023-04-16T03:15:38;27.20;;;17.80;;
49842;SDS011;55559;48.898;9.184;2023-04-16T03:18:07;18.23;;;13.65;;
49842;SDS011;55559;48.898;9.184;2023-04-16T03:20:34;17.98;;;14.90;;
49842;SDS011;55559;48.898;9.184;2023-04-16T03:23:02;19.60;;;14.25;;
49842;SDS011;55559;48.898;9.184;2023-04-16T03:25:29;16.35;;;12.65;;
49842;SDS011;55559;48.898;9.184;2023-04-16T03:27:57;19.00;;;14.05;;
49842;SDS011;55559;48.898;9.184;2023-04-16T03:30:24;24.02;;;15.18;;
49842;SDS011;55559;48.898;9.184;2023-04-16T03:32:52;19.75;;;14.20;;
49842;SDS011;55559;48.898;9.184;2023-04-16T03:35:21;23.70;;;16.60;;
49842;SDS011;55559;48.898;9.184;2023-04-16T03:37:51;22.90;;;15.52;;
49842;SDS011;55559;48.898;9.184;2023-04-16T03:40:18;28.67;;;18.40;;
49842;SDS011;55559;48.898;9.184;2023-04-16T03:42:46;27.30;;;18.15;;
49842;SDS011;55559;48.898;9.184;2023-04-16T03:45:13;27.10;;;17.77;;
49842;SDS011;55559;48.898;9.184;2023-04-16T03:47:42;27.70;;;19.05;;
49842;SDS011;55559;48.898;9.184;2023-04-16T03:50:13;29.15;;;18.38;;
49842;SDS011;55559;48.898;9.184;2023-04-16T03:52:42;30.98;;;20.67;;
49842;SDS011;55559;48.898;9.184;2023-04-16T03:55:11;31.40;;;19.88;;
49842;SDS011;55559;48.898;9.184;2023-04-16T03:57:38;30.88;;;20.15;;
49842;SDS011;55559;48.898;9.184;2023-04-16T04:00:10;32.20;;;20.80;;
49842;SDS011;55559;48.898;9.184;2023-04-16T04:02:54;32.00;;;21.20;;
49842;SDS011;55559;48.898;9.184;2023-04-16T04:05:22;41.25;;;24.45;;
49842;SDS011;55559;48.898;9.184;2023-04-16T04:07:52;37.55;;;21.58;;
49842;SDS011;55559;48.898;9.184;2023-04-16T04:10:19;35.28;;;21.77;;
49842;SDS011;55559;48.898;9.184;2023-04-16T04:12:47;32.45;;;22.17;;
49842;SDS011;55559;48.898;9.184;2023-04-16T04:15:16;35.03;;;23.77;;
49842;SDS011;55559;48.898;9.184;2023-04-16T04:17:43;34.75;;;22.30;;
49842;SDS011;55559;48.898;9.184;2023-04-16T04:20:11;37.85;;;23.70;;
49842;SDS011;55559;48.898;9.184;2023-04-16T04:22:42;31.50;;;21.77;;
49842;SDS011;55559;48.898;9.184;2023-04-16T04:25:12;36.35;;;23.58;;
49842;SDS011;55559;48.898;9.184;2023-04-16T04:27:40;35.20;;;21.17;;
49842;SDS011;55559;48.898;9.184;2023-04-16T04:30:08;32.30;;;21.20;;
49842;SDS011;55559;48.898;9.184;2023-04-16T04:32:40;35.35;;;21.70;;
49842;SDS011;55559;48.898;9.184;2023-04-16T04:35:09;32.00;;;22.23;;
49842;SDS011;55559;48.898;9.184;2023-04-16T04:37:36;36.35;;;23.05;;
49842;SDS011;55559;48.898;9.184;2023-04-16T04:40:13;33.88;;;22.15;;
49842;SDS011;55559;48.898;9.184;2023-04-16T04:42:41;40.90;;;24.27;;
49842;SDS011;55559;48.898;9.184;2023-04-16T04:45:09;45.38;;;25.60;;
49842;SDS011;55559;48.898;9.184;2023-04-16T04:47:37;40.95;;;25.88;;
49842;SDS011;55559;48.898;9.184;2023-04-16T04:50:05;41.38;;;24.98;;
49842;SDS011;55559;48.898;9.184;2023-04-16T04:52:33;51.03;;;27.88;;
49842;SDS011;55559;48.898;9.184;2023-04-16T04:55:01;38.78;;;25.60;;
49842;SDS011;55559;48.898;9.184;2023-04-16T04:57:30;41.65;;;26.35;;
49842;SDS011;55559;48.898;9.184;2023-04-16T04:59:58;46.78;;;25.38;;
49842;SDS011;55559;48.898;9.184;2023-04-16T05:02:34;44.85;;;27.25;;
49842;SDS011;55559;48.898;9.184;2023-04-16T05:05:03;52.83;;;28.73;;
49842;SDS011;55559;48.898;9.184;2023-04-16T05:07:31;44.35;;;27.85;;
49842;SDS011;55559;48.898;9.184;2023-04-16T05:09:58;43.58;;;27.23;;
49842;SDS011;55559;48.898;9.184;2023-04-16T05:12:26;50.97;;;27.73;;
49842;SDS011;55559;48.898;9.184;2023-04-16T05:14:55;58.65;;;31.33;;
49842;SDS011;55559;48.898;9.184;2023-04-16T05:17:22;56.97;;;32.72;;
49842;SDS011;55559;48.898;9.184;2023-04-16T05:19:49;59.60;;;32.15;;
49842;SDS011;55559;48.898;9.184;2023-04-16T05:22:18;68.32;;;36.00;;
49842;SDS011;55559;48.898;9.184;2023-04-16T05:24:45;67.45;;;33.90;;
49842;SDS011;55559;48.898;9.184;2023-04-16T05:27:12;65.38;;;34.35;;
49842;SDS011;55559;48.898;9.184;2023-04-16T05:29:40;64.30;;;36.10;;
49842;SDS011;55559;48.898;9.184;2023-04-16T05:32:09;61.90;;;36.22;;
49842;SDS011;55559;48.898;9.184;2023-04-16T05:34:36;73.25;;;37.63;;
49842;SDS011;55559;48.898;9.184;2023-04-16T05:37:04;78.13;;;38.38;;
49842;SDS011;55559;48.898;9.184;2023-04-16T05:39:31;74.45;;;39.72;;
49842;SDS011;55559;48.898;9.184;2023-04-16T05:41:59;71.53;;;37.40;;
49842;SDS011;55559;48.898;9.184;2023-04-16T05:44:26;70.32;;;37.42;;
49842;SDS011;55559;48.898;9.184;2023-04-16T05:46:54;65.43;;;37.33;;
49842;SDS011;55559;48.898;9.184;2023-04-16T05:49:23;81.93;;;39.25;;
49842;SDS011;55559;48.898;9.184;2023-04-16T05:51:50;69.30;;;38.60;;
49842;SDS011;55559;48.898;9.184;2023-04-16T05:54:20;64.50;;;36.35;;
49842;SDS011;55559;48.898;9.184;2023-04-16T05:56:48;74.13;;;40.33;;
49842;SDS011;55559;48.898;9.184;2023-04-16T05:59:16;72.32;;;41.13;;
49842;SDS011;55559;48.898;9.184;2023-04-16T06:01:43;72.63;;;37.78;;
49842;SDS011;55559;48.898;9.184;2023-04-16T06:04:11;72.97;;;39.03;;
49842;SDS011;55559;48.898;9.184;2023-04-16T06:06:39;73.78;;;38.75;;
49842;SDS011;55559;48.898;9.184;2023-04-16T06:09:07;68.07;;;37.33;;
49842;SDS011;55559;48.898;9.184;2023-04-16T06:11:34;76.47;;;37.35;;
49842;SDS011;55559;48.898;9.184;2023-04-16T06:14:02;65.18;;;36.53;;
49842;SDS011;55559;48.898;9.184;2023-04-16T06:16:29;67.40;;;37.17;;
49842;SDS011;55559;48.898;9.184;2023-04-16T06:18:57;65.30;;;36.25;;
49842;SDS011;55559;48.898;9.184;2023-04-16T06:21:24;68.53;;;34.03;;
49842;SDS011;55559;48.898;9.184;2023-04-16T06:23:54;69.68;;;36.70;;
49842;SDS011;55559;48.898;9.184;2023-04-16T06:26:22;60.67;;;35.88;;
49842;SDS011;55559;48.898;9.184;2023-04-16T06:28:49;63.67;;;38.00;;
49842;SDS011;55559;48.898;9.184;2023-04-16T06:31:16;66.70;;;35.60;;
49842;SDS011;55559;48.898;9.184;2023-04-16T06:33:44;68.82;;;36.72;;
49842;SDS011;55559;48.898;9.184;2023-04-16T06:36:11;59.38;;;33.97;;
49842;SDS011;55559;48.898;9.184;2023-04-16T06:38:39;59.63;;;33.83;;
49842;SDS011;55559;48.898;9.184;2023-04-16T06:41:08;61.55;;;34.78;;
49842;SDS011;55559;48.898;9.184;2023-04-16T06:43:35;54.35;;;33.30;;
49842;SDS011;55559;48.898;9.184;2023-04-16T06:46:03;57.90;;;35.67;;
49842;SDS011;55559;48.898;9.184;2023-04-16T06:48:30;55.53;;;30.80;;
49842;SDS011;55559;48.898;9.184;2023-04-16T06:50:58;56.45;;;32.92;;
49842;SDS011;55559;48.898;9.184;2023-04-16T06:53:26;61.50;;;33.90;;
49842;SDS011;55559;48.898;9.184;2023-04-16T06:55:53;59.42;;;36.38;;
49842;SDS011;55559;48.898;9.184;2023-04-16T06:58:22;56.05;;;32.45;;
49842;SDS011;55559;48.898;9.184;2023-04-16T07:00:50;58.42;;;34.03;;
49842;SDS011;55559;48.898;9.184;2023-04-16T07:03:17;56.80;;;34.47;;
49842;SDS011;55559;48.898;9.184;2023-04-16T07:05:44;51.42;;;29.83;;
49842;SDS011;55559;48.898;9.184;2023-04-16T07:08:12;52.92;;;32.25;;
49842;SDS011;55559;48.898;9.184;2023-04-16T07:10:39;57.47;;;33.10;;
49842;SDS011;55559;48.898;9.184;2023-04-16T07:13:07;51.30;;;30.27;;
49842;SDS011;55559;48.898;9.184;2023-04-16T07:15:36;52.05;;;32.55;;
49842;SDS011;55559;48.898;9.184;2023-04-16T07:18:03;50.88;;;32.08;;
49842;SDS011;55559;48.898;9.184;2023-04-16T07:20:31;50.92;;;31.00;;
49842;SDS011;55559;48.898;9.184;2023-04-16T07:22:58;46.63;;;28.65;;
49842;SDS011;55559;48.898;9.184;2023-04-16T07:25:26;45.35;;;31.08;;
49842;SDS011;55559;48.898;9.184;2023-04-16T07:27:53;44.65;;;28.08;;
49842;SDS011;55559;48.898;9.184;2023-04-16T07:30:21;51.45;;;28.95;;
49842;SDS011;55559;48.898;9.184;2023-04-16T07:32:50;42.40;;;29.00;;
49842;SDS011;55559;48.898;9.184;2023-04-16T07:35:17;41.70;;;26.95;;
49842;SDS011;55559;48.898;9.184;2023-04-16T07:37:45;39.30;;;26.90;;
49842;SDS011;55559;48.898;9.184;2023-04-16T07:40:12;40.35;;;26.48;;
49842;SDS011;55559;48.898;9.184;2023-04-16T07:42:40;41.78;;;25.90;;
49842;SDS011;55559;48.898;9.184;2023-04-16T07:45:07;43.15;;;27.02;;
49842;SDS011;55559;48.898;9.184;2023-04-16T07:47:36;40.80;;;26.83;;
49842;SDS011;55559;48.898;9.184;2023-04-16T07:50:05;39.35;;;25.33;;
49842;SDS011;55559;48.898;9.184;2023-04-16T07:52:33;36.97;;;27.02;;
49842;SDS011;55559;48.898;9.184;2023-04-16T07:55:03;36.03;;;25.60;;
49842;SDS011;55559;48.898;9.184;2023-04-16T07:57:31;41.35;;;25.45;;
49842;SDS011;55559;48.898;9.184;2023-04-16T07:59:58;38.92;;;24.00;;
49842;SDS011;55559;48.898;9.184;2023-04-16T08:02:26;36.03;;;24.50;;
49842;SDS011;55559;48.898;9.184;2023-04-16T08:04:54;40.17;;;21.92;;
49842;SDS011;55559;48.898;9.184;2023-04-16T08:07:23;35.97;;;24.45;;
49842;SDS011;55559;48.898;9.184;2023-04-16T08:09:50;34.33;;;23.67;;
49842;SDS011;55559;48.898;9.184;2023-04-16T08:12:18;32.45;;;21.95;;
49842;SDS011;55559;48.898;9.184;2023-04-16T08:14:46;32.05;;;21.20;;
49842;SDS011;55559;48.898;9.184;2023-04-16T08:17:14;34.45;;;21.58;;
49842;SDS011;55559;48.898;9.184;2023-04-16T08:19:42;36.78;;;21.48;;
49842;SDS011;55559;48.898;9.184;2023-04-16T08:22:10;32.25;;;22.45;;
49842;SDS011;55559;48.898;9.184;2023-04-16T08:24:39;31.95;;;21.48;;
49842;SDS011;55559;48.898;9.184;2023-04-16T08:27:07;31.85;;;21.27;;
49842;SDS011;55559;48.898;9.184;2023-04-16T08:29:35;33.72;;;20.85;;
49842;SDS011;55559;48.898;9.184;2023-04-16T08:32:02;28.95;;;20.40;;
49842;SDS011;55559;48.898;9.184;2023-04-16T08:34:30;29.40;;;18.83;;
49842;SDS011;55559;48.898;9.184;2023-04-16T08:36:58;35.70;;;20.55;;
49842;SDS011;55559;48.898;9.184;2023-04-16T08:39:25;29.13;;;19.42;;
49842;SDS011;55559;48.898;9.184;2023-04-16T08:41:54;31.50;;;20.33;;
49842;SDS011;55559;48.898;9.184;2023-04-16T08:44:24;34.65;;;20.35;;
49842;SDS011;55559;48.898;9.184;2023-04-16T08:46:53;30.83;;;19.05;;
49842;SDS011;55559;48.898;9.184;2023-04-16T08:49:23;32.75;;;18.17;;
49842;SDS011;55559;48.898;9.184;2023-04-16T08:51:52;26.80;;;19.15;;
49842;SDS011;55559;48.898;9.184;2023-04-16T08:54:25;26.67;;;18.73;;
49842;SDS011;55559;48.898;9.184;2023-04-16T08:56:59;27.77;;;19.02;;
49842;SDS011;55559;48.898;9.184;2023-04-16T08:59:31;29.92;;;19.88;;
49842;SDS011;55559;48.898;9.184;2023-04-16T09:02:00;28.20;;;17.70;;
49842;SDS011;55559;48.898;9.184;2023-04-16T09:04:28;27.05;;;18.25;;
49842;SDS011;55559;48.898;9.184;2023-04-16T09:06:57;28.85;;;18.25;;
49842;SDS011;55559;48.898;9.184;2023-04-16T09:09:25;24.98;;;17.42;;
49842;SDS011;55559;48.898;9.184;2023-04-16T09:11:54;34.78;;;19.25;;
49842;SDS011;55559;48.898;9.184;2023-04-16T09:14:23;31.60;;;19.55;;
49842;SDS011;55559;48.898;9.184;2023-04-16T09:16:50;24.90;;;17.15;;
49842;SDS011;55559;48.898;9.184;2023-04-16T09:19:20;28.52;;;19.38;;
49842;SDS011;55559;48.898;9.184;2023-04-16T09:21:47;29.52;;;16.83;;
49842;SDS011;55559;48.898;9.184;2023-04-16T09:24:15;28.77;;;18.92;;
49842;SDS011;55559;48.898;9.184;2023-04-16T09:26:43;31.00;;;18.55;;
49842;SDS011;55559;48.898;9.184;2023-04-16T09:29:14;30.80;;;20.42;;
49842;SDS011;55559;48.898;9.184;2023-04-16T09:32:01;30.52;;;19.27;;
49842;SDS011;55559;48.898;9.184;2023-04-16T09:34:30;29.40;;;18.48;;
49842;SDS011;55559;48.898;9.184;2023-04-16T09:37:14;34.35;;;19.52;;
49842;SDS011;55559;48.898;9.184;2023-04-16T09:39:42;30.05;;;16.98;;
49842;SDS011;55559;48.898;9.184;2023-04-16T09:42:10;31.50;;;20.30;;
49842;SDS011;55559;48.898;9.184;2023-04-16T09:44:39;32.55;;;19.40;;
49842;SDS011;55559;48.898;9.184;2023-04-16T09:47:06;29.95;;;19.98;;
49842;SDS011;55559;48.898;9.184;2023-04-16T09:49:36;31.55;;;17.00;;
49842;SDS011;55559;48.898;9.184;2023-04-16T09:52:08;37.50;;;20.83;;
49842;SDS011;55559;48.898;9.184;2023-04-16T09:54:44;37.78;;;20.92;;
49842;SDS011;55559;48.898;9.184;2023-04-16T09:57:12;34.78;;;21.08;;
49842;SDS011;55559;48.898;9.184;2023-04-16T09:59:41;36.58;;;21.20;;
49842;SDS011;55559;48.898;9.184;2023-04-16T10:02:09;40.22;;;22.33;;
49842;SDS011;55559;48.898;9.184;2023-04-16T10:04:47;35.63;;;19.33;;
49842;SDS011;55559;48.898;9.184;2023-04-16T10:07:16;37.75;;;22.08;;
49842;SDS011;55559;48.898;9.184;2023-04-16T10:09:45;39.05;;;22.98;;
49842;SDS011;55559;48.898;9.184;2023-04-16T10:12:13;39.47;;;23.48;;
49842;SDS011;55559;48.898;9.184;2023-04-16T10:14:43;39.88;;;23.02;;
49842;SDS011;55559;48.898;9.184;2023-04-16T10:17:10;37.05;;;21.52;;
49842;SDS011;55559;48.898;9.184;2023-04-16T10:19:38;34.80;;;22.23;;
49842;SDS011;55559;48.898;9.184;2023-04-16T10:22:06;37.45;;;22.15;;
49842;SDS011;55559;48.898;9.184;2023-04-16T10:24:33;37.50;;;20.73;;
49842;SDS011;55559;48.898;9.184;2023-04-16T10:27:01;35.92;;;20.48;;
49842;SDS011;55559;48.898;9.184;2023-04-16T10:29:29;38.15;;;22.55;;
49842;SDS011;55559;48.898;9.184;2023-04-16T10:31:59;34.28;;;21.45;;
49842;SDS011;55559;48.898;9.184;2023-04-16T10:34:26;41.22;;;22.50;;
49842;SDS011;55559;48.898;9.184;2023-04-16T10:36:55;35.83;;;20.60;;
49842;SDS011;55559;48.898;9.184;2023-04-16T10:39:23;35.75;;;21.95;;
49842;SDS011;55559;48.898;9.184;2023-04-16T10:42:05;35.58;;;20.25;;
49842;SDS011;55559;48.898;9.184;2023-04-16T10:44:34;31.80;;;19.30;;
49842;SDS011;55559;48.898;9.184;2023-04-16T10:47:04;39.70;;;22.13;;
49842;SDS011;55559;48.898;9.184;2023-04-16T10:49:37;34.65;;;18.90;;
49842;SDS011;55559;48.898;9.184;2023-04-16T10:52:08;37.53;;;20.23;;
49842;SDS011;55559;48.898;9.184;2023-04-16T10:54:38;35.30;;;18.97;;
49842;SDS011;55559;48.898;9.184;2023-04-16T10:57:06;35.83;;;20.05;;
49842;SDS011;55559;48.898;9.184;2023-04-16T10:59:35;31.73;;;18.90;;
49842;SDS011;55559;48.898;9.184;2023-04-16T11:02:07;33.30;;;16.88;;
49842;SDS011;55559;48.898;9.184;2023-04-16T11:04:38;32.00;;;16.50;;
49842;SDS011;55559;48.898;9.184;2023-04-16T11:07:13;33.10;;;18.65;;
49842;SDS011;55559;48.898;9.184;2023-04-16T11:09:46;27.17;;;17.33;;
49842;SDS011;55559;48.898;9.184;2023-04-16T11:12:18;27.08;;;15.55;;
49842;SDS011;55559;48.898;9.184;2023-04-16T11:14:47;26.55;;;13.32;;
49842;SDS011;55559;48.898;9.184;2023-04-16T11:17:17;24.08;;;14.07;;
49842;SDS011;55559;48.898;9.184;2023-04-16T11:19:46;27.23;;;16.30;;
49842;SDS011;55559;48.898;9.184;2023-04-16T11:22:14;25.08;;;12.63;;
49842;SDS011;55559;48.898;9.184;2023-04-16T11:24:43;21.77;;;13.00;;
49842;SDS011;55559;48.898;9.184;2023-04-16T11:27:11;20.98;;;12.55;;
49842;SDS011;55559;48.898;9.184;2023-04-16T11:29:39;23.58;;;12.73;;
49842;SDS011;55559;48.898;9.184;2023-04-16T11:32:09;19.13;;;11.93;;
49842;SDS011;55559;48.898;9.184;2023-04-16T11:34:44;22.63;;;13.05;;
49842;SDS011;55559;48.898;9.184;2023-04-16T11:37:12;24.92;;;13.10;;
49842;SDS011;55559;48.898;9.184;2023-04-16T11:39:47;21.35;;;10.18;;
49842;SDS011;55559;48.898;9.184;2023-04-16T11:42:18;21.90;;;12.55;;
49842;SDS011;55559;48.898;9.184;2023-04-16T11:44:50;22.52;;;12.77;;
49842;SDS011;55559;48.898;9.184;2023-04-16T11:47:19;23.25;;;12.55;;
49842;SDS011;55559;48.898;9.184;2023-04-16T11:49:48;19.73;;;11.63;;
49842;SDS011;55559;48.898;9.184;2023-04-16T11:52:25;20.95;;;11.77;;
49842;SDS011;55559;48.898;9.184;2023-04-16T11:54:53;16.50;;;10.57;;
49842;SDS011;55559;48.898;9.184;2023-04-16T11:57:24;21.48;;;12.00;;
49842;SDS011;55559;48.898;9.184;2023-04-16T11:59:52;17.60;;;11.38;;
49842;SDS011;55559;48.898;9.184;2023-04-16T12:02:36;19.88;;;9.90;;
49842;SDS011;55559;48.898;9.184;2023-04-16T12:05:06;15.88;;;10.07;;
49842;SDS011;55559;48.898;9.184;2023-04-16T12:07:52;26.60;;;10.20;;
49842;SDS011;55559;48.898;9.184;2023-04-16T12:10:19;17.63;;;9.52;;
49842;SDS011;55559;48.898;9.184;2023-04-16T12:12:47;15.00;;;9.88;;
49842;SDS011;55559;48.898;9.184;2023-04-16T12:15:14;20.60;;;9.88;;
49842;SDS011;55559;48.898;9.184;2023-04-16T12:17:42;20.35;;;10.55;;
49842;SDS011;55559;48.898;9.184;2023-04-16T12:20:11;20.00;;;11.43;;
49842;SDS011;55559;48.898;9.184;2023-04-16T12:22:43;12.90;;;9.65;;
49842;SDS011;55559;48.898;9.184;2023-04-16T12:25:12;13.90;;;8.70;;
49842;SDS011;55559;48.898;9.184;2023-04-16T12:27:41;14.43;;;7.50;;
49842;SDS011;55559;48.898;9.184;2023-04-16T12:30:10;11.73;;;7.30;;
49842;SDS011;55559;48.898;9.184;2023-04-16T12:32:40;12.35;;;7.57;;
49842;SDS011;55559;48.898;9.184;2023-04-16T12:35:09;11.90;;;7.55;;
49842;SDS011;55559;48.898;9.184;2023-04-16T12:40:35;11.82;;;8.57;;
49842;SDS011;55559;48.898;9.184;2023-04-16T12:43:02;14.05;;;8.57;;
49842;SDS011;55559;48.898;9.184;2023-04-16T12:45:30;17.83;;;10.75;;
49842;SDS011;55559;48.898;9.184;2023-04-16T12:47:57;14.95;;;8.60;;
49842;SDS011;55559;48.898;9.184;2023-04-16T12:50:26;12.27;;;7.70;;
49842;SDS011;55559;48.898;9.184;2023-04-16T12:52:54;12.98;;;8.45;;
49842;SDS011;55559;48.898;9.184;2023-04-16T12:55:22;12.48;;;7.05;;
49842;SDS011;55559;48.898;9.184;2023-04-16T12:57:49;9.73;;;8.02;;
49842;SDS011;55559;48.898;9.184;2023-04-16T13:00:17;12.18;;;8.85;;
49842;SDS011;55559;48.898;9.184;2023-04-16T13:02:45;15.73;;;8.15;;
49842;SDS011;55559;48.898;9.184;2023-04-16T13:05:13;12.35;;;7.97;;
49842;SDS011;55559;48.898;9.184;2023-04-16T13:07:44;12.68;;;7.97;;
49842;SDS011;55559;48.898;9.184;2023-04-16T13:10:11;15.60;;;8.05;;
49842;SDS011;55559;48.898;9.184;2023-04-16T13:12:39;10.02;;;7.00;;
49842;SDS011;55559;48.898;9.184;2023-04-16T13:15:07;9.27;;;6.72;;
49842;SDS011;55559;48.898;9.184;2023-04-16T13:17:35;14.57;;;8.32;;
49842;SDS011;55559;48.898;9.184;2023-04-16T13:20:03;15.98;;;9.18;;
49842;SDS011;55559;48.898;9.184;2023-04-16T13:22:31;12.10;;;8.10;;
49842;SDS011;55559;48.898;9.184;2023-04-16T13:25:00;17.17;;;11.70;;
49842;SDS011;55559;48.898;9.184;2023-04-16T13:27:28;14.80;;;9.50;;
49842;SDS011;55559;48.898;9.184;2023-04-16T13:29:56;16.50;;;9.70;;
49842;SDS011;55559;48.898;9.184;2023-04-16T13:32:24;14.13;;;8.70;;
49842;SDS011;55559;48.898;9.184;2023-04-16T13:34:51;16.58;;;10.18;;
49842;SDS011;55559;48.898;9.184;2023-04-16T13:37:18;13.07;;;9.10;;
49842;SDS011;55559;48.898;9.184;2023-04-16T13:39:46;13.75;;;9.85;;
49842;SDS011;55559;48.898;9.184;2023-04-16T13:42:15;15.35;;;10.10;;
49842;SDS011;55559;48.898;9.184;2023-04-16T13:44:42;14.52;;;9.38;;
49842;SDS011;55559;48.898;9.184;2023-04-16T13:47:13;14.80;;;9.85;;
49842;SDS011;55559;48.898;9.184;2023-04-16T13:49:41;17.35;;;10.93;;
49842;SDS011;55559;48.898;9.184;2023-04-16T13:52:08;19.42;;;11.75;;
49842;SDS011;55559;48.898;9.184;2023-04-16T13:54:35;17.77;;;12.07;;
49842;SDS011;55559;48.898;9.184;2023-04-16T13:57:02;18.80;;;11.63;;
49842;SDS011;55559;48.898;9.184;2023-04-16T13:59:31;18.15;;;12.05;;
49842;SDS011;55559;48.898;9.184;2023-04-16T14:01:58;19.67;;;12.68;;
49842;SDS011;55559;48.898;9.184;2023-04-16T14:04:26;24.00;;;12.52;;
49842;SDS011;55559;48.898;9.184;2023-04-16T14:06:53;19.27;;;12.52;;
49842;SDS011;55559;48.898;9.184;2023-04-16T14:09:21;22.50;;;13.07;;
49842;SDS011;55559;48.898;9.184;2023-04-16T14:11:49;20.20;;;12.93;;
49842;SDS011;55559;48.898;9.184;2023-04-16T14:14:17;21.25;;;14.05;;
49842;SDS011;55559;48.898;9.184;2023-04-16T14:16:45;19.77;;;12.88;;
49842;SDS011;55559;48.898;9.184;2023-04-16T14:19:13;19.10;;;13.38;;
49842;SDS011;55559;48.898;9.184;2023-04-16T14:21:40;24.83;;;14.70;;
49842;SDS011;55559;48.898;9.184;2023-04-16T14:24:08;22.77;;;14.10;;
49842;SDS011;55559;48.898;9.184;2023-04-16T14:26:35;23.70;;;15.52;;
49842;SDS011;55559;48.898;9.184;2023-04-16T14:29:02;26.45;;;16.15;;
49842;SDS011;55559;48.898;9.184;2023-04-16T14:31:30;24.52;;;16.35;;
49842;SDS011;55559;48.898;9.184;2023-04-16T14:33:59;22.25;;;16.10;;
49842;SDS011;55559;48.898;9.184;2023-04-16T14:36:27;29.30;;;18.45;;